createdAt,value
2022-12-29T00:01:23.790Z,12.40
2022-12-29T00:06:26.860Z,12.40
2022-12-29T00:11:29.653Z,12.33
2022-12-29T00:16:34.961Z,12.26
2022-12-29T00:21:55.170Z,12.13
2022-12-29T00:27:23.431Z,12.02
2022-12-29T00:32:45.156Z,11.99
2022-12-29T00:38:07.904Z,12.15
2022-12-29T00:43:28.318Z,12.13
2022-12-29T00:48:49.975Z,12.21
2022-12-29T00:53:52.893Z,12.17
2022-12-29T00:58:55.558Z,12.14
2022-12-29T01:04:03.661Z,12.03
2022-12-29T01:09:24.959Z,12.04
2022-12-29T01:14:27.961Z,12.08
2022-12-29T01:19:32.029Z,12.06
2022-12-29T01:24:34.637Z,12.12
2022-12-29T01:29:37.195Z,12.25
2022-12-29T01:34:42.709Z,12.36
2022-12-29T01:39:45.558Z,12.35
2022-12-29T01:44:54.772Z,12.57
2022-12-29T01:50:04.290Z,12.60
2022-12-29T01:55:08.502Z,12.63
2022-12-29T02:05:54.532Z,12.65
2022-12-29T02:10:58.531Z,12.70
2022-12-29T02:16:15.647Z,12.75
2022-12-29T02:21:54.168Z,12.89
2022-12-29T02:27:24.018Z,12.99
2022-12-29T02:32:37.994Z,12.88
2022-12-29T02:37:46.450Z,12.78
2022-12-29T02:42:53.553Z,12.79
2022-12-29T02:54:44.755Z,12.76
2022-12-29T02:59:53.106Z,12.75
2022-12-29T03:05:13.490Z,12.67
2022-12-29T03:10:27.583Z,12.77
2022-12-29T03:15:53.928Z,12.67
2022-12-29T03:21:00.627Z,12.67
2022-12-29T03:26:24.791Z,12.65
2022-12-29T03:31:27.975Z,12.57
2022-12-29T03:36:39.505Z,12.50
2022-12-29T03:41:47.481Z,12.48
2022-12-29T03:46:50.168Z,12.54
2022-12-29T03:51:53.408Z,12.58
2022-12-29T03:57:00.345Z,12.55
2022-12-29T04:02:18.275Z,12.49
2022-12-29T04:07:21.255Z,12.47
2022-12-29T04:12:26.121Z,12.46
2022-12-29T04:17:28.887Z,12.20
2022-12-29T04:22:31.673Z,12.17
2022-12-29T04:27:35.764Z,12.20
2022-12-29T04:32:58.966Z,12.23
2022-12-29T04:38:01.623Z,12.29
2022-12-29T04:43:06.055Z,12.20
2022-12-29T04:48:16.207Z,11.62
2022-12-29T04:53:25.789Z,11.30
2022-12-29T04:58:31.603Z,11.26
2022-12-29T05:03:35.663Z,11.15
2022-12-29T05:08:38.378Z,11.12
2022-12-29T05:13:42.802Z,11.16
2022-12-29T05:18:45.405Z,10.92
2022-12-29T05:23:48.217Z,10.89
2022-12-29T05:28:52.682Z,10.81
2022-12-29T05:33:55.900Z,10.63
2022-12-29T05:38:59.145Z,10.87
2022-12-29T05:44:03.505Z,11.17
2022-12-29T05:49:10.386Z,11.22
2022-12-29T05:54:34.602Z,11.34
2022-12-29T05:59:40.219Z,11.08
2022-12-29T06:04:42.954Z,11.26
2022-12-29T06:09:46.180Z,11.48
2022-12-29T06:14:51.238Z,11.51
2022-12-29T06:19:54.260Z,11.59
2022-12-29T06:25:03.012Z,11.48
2022-12-29T06:30:11.918Z,11.51
2022-12-29T06:35:16.270Z,11.48
2022-12-29T06:40:25.717Z,11.62
2022-12-29T06:45:50.022Z,11.72
2022-12-29T06:50:52.715Z,11.54
2022-12-29T06:55:55.287Z,11.67
2022-12-29T07:01:00.432Z,11.59
2022-12-29T07:06:03.444Z,11.58
2022-12-29T07:11:06.099Z,11.56
2022-12-29T07:16:11.767Z,11.58
2022-12-29T07:21:14.574Z,11.69
2022-12-29T07:26:18.590Z,11.63
2022-12-29T07:31:24.459Z,11.67
2022-12-29T07:36:32.478Z,11.62
2022-12-29T07:41:37.219Z,11.66
2022-12-29T07:46:53.759Z,11.75
2022-12-29T07:51:59.389Z,11.83
2022-12-29T07:57:02.040Z,11.79
2022-12-29T08:02:06.080Z,11.74
2022-12-29T08:07:08.726Z,11.82
2022-12-29T08:12:12.178Z,11.85
2022-12-29T08:17:16.052Z,11.81
2022-12-29T08:22:18.634Z,11.82
2022-12-29T08:27:21.477Z,11.79
2022-12-29T08:32:25.569Z,11.82
2022-12-29T08:37:31.246Z,11.79
2022-12-29T08:42:34.988Z,11.82
2022-12-29T08:47:39.186Z,11.89
2022-12-29T08:52:41.790Z,11.93
2022-12-29T08:57:44.501Z,11.89
2022-12-29T09:02:54.155Z,11.97
2022-12-29T09:07:57.018Z,12.10
2022-12-29T09:12:59.850Z,12.13
2022-12-29T09:18:03.810Z,11.98
2022-12-29T09:23:08.281Z,12.13
2022-12-29T09:28:10.820Z,12.04
2022-12-29T09:33:14.959Z,11.98
2022-12-29T09:38:18.073Z,11.88
2022-12-29T09:43:40.870Z,11.91
2022-12-29T09:48:49.468Z,12.02
2022-12-29T09:53:55.740Z,12.02
2022-12-29T09:59:06.282Z,11.99
2022-12-29T10:04:10.812Z,12.15
2022-12-29T10:09:19.409Z,12.19
2022-12-29T10:14:34.860Z,12.28
2022-12-29T10:19:55.607Z,12.27
2022-12-29T10:24:58.649Z,12.27
2022-12-29T10:30:04.432Z,12.20
2022-12-29T10:35:16.718Z,12.36
2022-12-29T10:40:25.190Z,12.37
2022-12-29T10:45:33.475Z,12.22
2022-12-29T10:50:43.596Z,12.26
2022-12-29T10:55:47.865Z,12.21
2022-12-29T11:00:54.404Z,12.22
2022-12-29T11:06:03.488Z,12.24
2022-12-29T11:11:07.937Z,12.35
2022-12-29T11:16:14.445Z,12.29
2022-12-29T11:21:32.326Z,12.36
2022-12-29T11:26:35.524Z,12.39
2022-12-29T11:31:42.859Z,12.29
2022-12-29T11:36:47.397Z,12.28
2022-12-29T11:41:54.137Z,12.24
2022-12-29T11:46:57.197Z,12.37
2022-12-29T11:52:02.215Z,12.37
2022-12-29T11:57:13.726Z,12.41
2022-12-29T12:02:43.529Z,12.18
2022-12-29T12:07:51.296Z,12.16
2022-12-29T12:13:00.840Z,12.23
2022-12-29T12:18:21.344Z,12.34
2022-12-29T12:23:37.596Z,12.31
2022-12-29T12:28:47.889Z,12.31
2022-12-29T12:33:59.399Z,12.41
2022-12-29T12:39:12.746Z,12.23
2022-12-29T12:44:25.670Z,12.32
2022-12-29T12:49:49.440Z,12.12
2022-12-29T12:55:10.027Z,12.09
2022-12-29T13:00:18.828Z,12.02
2022-12-29T13:05:33.312Z,12.25
2022-12-29T13:10:47.039Z,12.19
2022-12-29T13:16:02.097Z,12.28
2022-12-29T13:21:15.573Z,12.11
2022-12-29T13:26:24.992Z,11.93
2022-12-29T13:31:35.645Z,12.02
2022-12-29T13:36:44.040Z,11.92
2022-12-29T13:41:51.855Z,12.07
2022-12-29T13:46:56.066Z,11.94
2022-12-29T13:52:00.902Z,11.97
2022-12-29T13:57:12.150Z,12.05
2022-12-29T14:02:27.629Z,11.67
2022-12-29T14:07:31.688Z,11.50
2022-12-29T14:12:40.544Z,11.75
2022-12-29T14:17:43.290Z,11.77
2022-12-29T14:22:58.080Z,11.58
2022-12-29T14:28:18.107Z,11.60
2022-12-29T14:33:22.738Z,11.55
2022-12-29T14:38:28.744Z,11.56
2022-12-29T14:43:32.675Z,11.58
2022-12-29T14:48:39.501Z,11.81
2022-12-29T14:53:45.919Z,11.66
2022-12-29T14:58:53.612Z,11.62
2022-12-29T15:03:59.982Z,11.64
2022-12-29T15:09:07.077Z,11.70
2022-12-29T15:14:33.823Z,11.54
2022-12-29T15:19:37.647Z,11.59
2022-12-29T15:24:43.819Z,11.67
2022-12-29T15:29:48.759Z,11.57
2022-12-29T15:34:54.007Z,11.51
2022-12-29T15:39:57.876Z,11.40
2022-12-29T15:45:13.266Z,11.49
2022-12-29T15:50:22.146Z,11.36
2022-12-29T15:55:31.965Z,11.30
2022-12-29T16:00:38.364Z,11.30
2022-12-29T16:05:41.808Z,11.37
2022-12-29T16:10:45.143Z,11.46
2022-12-29T16:15:50.655Z,11.35
2022-12-29T16:20:54.328Z,11.17
2022-12-29T16:25:58.742Z,11.22
2022-12-29T16:31:05.587Z,10.84
2022-12-29T16:36:24.390Z,11.02
2022-12-29T16:41:31.730Z,10.64
2022-12-29T16:46:35.764Z,10.18
2022-12-29T16:51:41.454Z,9.45
2022-12-29T16:56:46.793Z,9.34
2022-12-29T17:01:50.903Z,9.06
2022-12-29T17:06:53.779Z,8.91
2022-12-29T17:12:06.939Z,8.89
2022-12-29T17:17:18.441Z,9.05
2022-12-29T17:22:27.221Z,9.06
2022-12-29T17:27:35.915Z,8.97
2022-12-29T17:32:41.778Z,8.96
2022-12-29T17:37:45.131Z,8.72
2022-12-29T17:42:49.682Z,8.85
2022-12-29T17:47:53.803Z,8.89
2022-12-29T17:53:01.135Z,8.98
2022-12-29T17:58:17.385Z,8.91
2022-12-29T18:03:25.933Z,9.00
2022-12-29T18:08:29.355Z,8.79
2022-12-29T18:13:45.627Z,8.76
2022-12-29T18:18:50.212Z,8.83
2022-12-29T18:23:53.150Z,8.95
2022-12-29T18:28:57.120Z,9.08
2022-12-29T18:34:03.007Z,8.85
2022-12-29T18:39:05.632Z,9.10
2022-12-29T18:44:13.568Z,9.12
2022-12-29T18:49:18.646Z,8.43
2022-12-29T18:54:31.041Z,9.02
2022-12-29T18:59:33.718Z,9.02
2022-12-29T19:04:37.766Z,8.48
2022-12-29T19:09:40.466Z,8.74
2022-12-29T19:14:43.250Z,8.80
2022-12-29T19:19:47.561Z,8.74
2022-12-29T19:24:54.863Z,8.75
2022-12-29T19:30:00.779Z,8.81
2022-12-29T19:35:06.176Z,8.72
2022-12-29T19:40:10.586Z,8.78
2022-12-29T19:45:15.206Z,8.83
2022-12-29T19:50:19.878Z,8.66
2022-12-29T19:55:22.824Z,8.95
2022-12-29T20:00:26.549Z,8.78
2022-12-29T20:05:30.681Z,8.82
2022-12-29T20:10:33.292Z,8.97
2022-12-29T20:15:36.344Z,8.94
2022-12-29T20:20:40.700Z,8.03
2022-12-29T20:25:46.113Z,8.92
2022-12-29T20:30:56.515Z,8.83
2022-12-29T20:36:08.242Z,8.93
2022-12-29T20:41:14.164Z,8.81
2022-12-29T20:46:21.402Z,8.59
2022-12-29T20:51:28.424Z,8.12
2022-12-29T20:56:31.825Z,8.74
2022-12-29T21:01:36.093Z,8.82
2022-12-29T21:06:40.618Z,8.72
2022-12-29T21:11:45.602Z,8.89
2022-12-29T21:16:48.641Z,8.87
2022-12-29T21:21:53.300Z,8.65
2022-12-29T21:26:55.991Z,8.63
2022-12-29T21:32:06.236Z,8.71
2022-12-29T21:37:10.891Z,8.38
2022-12-29T21:42:14.368Z,8.72
2022-12-29T21:47:17.715Z,8.85
2022-12-29T21:52:21.826Z,8.88
2022-12-29T21:57:42.449Z,8.75
2022-12-29T22:03:03.802Z,8.78
2022-12-29T22:08:25.765Z,8.72
2022-12-29T22:13:28.757Z,8.74
2022-12-29T22:18:31.371Z,8.67
2022-12-29T22:23:35.384Z,8.67
2022-12-29T22:28:38.793Z,8.75
2022-12-29T22:33:41.365Z,8.49
2022-12-29T22:38:45.298Z,8.61
2022-12-29T22:43:48.008Z,8.61
2022-12-29T22:48:50.614Z,8.45
2022-12-29T22:53:54.819Z,8.28
2022-12-29T22:58:57.419Z,8.17
2022-12-29T23:04:35.061Z,8.47
2022-12-29T23:09:23.997Z,8.15
2022-12-29T23:14:26.967Z,8.36
2022-12-29T23:19:30.272Z,8.35
2022-12-29T23:24:34.362Z,8.42
2022-12-29T23:29:38.072Z,8.51
2022-12-29T23:34:40.960Z,8.63
2022-12-29T23:39:44.859Z,8.53
2022-12-29T23:44:47.819Z,8.49
2022-12-29T23:49:50.605Z,8.40
2022-12-29T23:54:54.537Z,8.51
2022-12-29T23:59:57.103Z,8.54
